createdAt,value
2018-06-23T00:01:16.749Z,102137.47
2018-06-23T00:03:44.481Z,102145.36
2018-06-23T00:06:12.166Z,102139.64
2018-06-23T00:08:39.967Z,102134.84
2018-06-23T00:11:07.713Z,102133.95
2018-06-23T00:13:35.737Z,102137.90
2018-06-23T00:16:03.524Z,102133.97
2018-06-23T00:18:31.263Z,102127.39
2018-06-23T00:20:59.081Z,102118.19
2018-06-23T00:23:26.843Z,102122.14
2018-06-23T00:26:00.212Z,102117.77
2018-06-23T00:28:28.073Z,102111.19
2018-06-23T00:30:55.909Z,102102.41
2018-06-23T00:33:23.625Z,102104.19
2018-06-23T00:35:51.534Z,102108.09
2018-06-23T00:38:19.305Z,102112.03
2018-06-23T00:40:47.199Z,102116.86
2018-06-23T00:43:15.077Z,102115.55
2018-06-23T00:45:42.893Z,102114.67
2018-06-23T00:48:10.774Z,102109.41
2018-06-23T00:50:38.840Z,102084.13
2018-06-23T00:53:06.674Z,102101.08
2018-06-23T00:55:34.412Z,102099.34
2018-06-23T00:58:02.142Z,102095.39
2018-06-23T01:00:29.964Z,102086.20
2018-06-23T01:02:57.710Z,102084.42
2018-06-23T01:05:25.388Z,102088.36
2018-06-23T01:07:53.329Z,102083.56
2018-06-23T01:10:21.064Z,102086.62
2018-06-23T01:12:48.954Z,102087.94
2018-06-23T01:15:16.801Z,102091.89
2018-06-23T01:17:44.585Z,102091.05
2018-06-23T01:20:12.476Z,102083.59
2018-06-23T01:22:40.741Z,102080.06
2018-06-23T01:25:08.485Z,102084.00
2018-06-23T01:27:36.231Z,102080.06
2018-06-23T01:30:04.276Z,102080.07
2018-06-23T01:32:32.135Z,102084.48
2018-06-23T01:35:00.259Z,102085.33
2018-06-23T01:37:28.010Z,102083.16
2018-06-23T01:39:55.767Z,102084.06
2018-06-23T01:42:23.529Z,102073.09
2018-06-23T01:44:51.500Z,102089.31
2018-06-23T01:47:19.296Z,102074.88
2018-06-23T01:49:46.970Z,102079.71
2018-06-23T01:52:14.863Z,102070.48
2018-06-23T01:54:42.658Z,102070.93
2018-06-23T01:57:10.426Z,102070.48
2018-06-23T01:59:38.243Z,102071.34
2018-06-23T02:02:06.031Z,102068.28
2018-06-23T02:04:33.727Z,102072.66
2018-06-23T02:07:01.538Z,102070.91
2018-06-23T02:09:29.357Z,102073.57
2018-06-23T02:11:57.168Z,102070.05
2018-06-23T02:14:30.522Z,102063.03
2018-06-23T02:18:04.442Z,102070.48
2018-06-23T02:20:37.809Z,102074.02
2018-06-23T02:23:11.107Z,102066.55
2018-06-23T02:25:44.497Z,102082.75
2018-06-23T02:28:17.637Z,102076.17
2018-06-23T02:30:50.998Z,102074.88
2018-06-23T02:33:24.427Z,102071.81
2018-06-23T02:35:52.216Z,102076.17
2018-06-23T02:38:20.009Z,102080.12
2018-06-23T02:40:47.810Z,102062.62
2018-06-23T02:43:15.678Z,102064.81
2018-06-23T02:45:43.559Z,102069.18
2018-06-23T02:48:11.256Z,102066.98
2018-06-23T02:50:39.152Z,102072.70
2018-06-23T02:53:06.887Z,102078.38
2018-06-23T02:55:34.637Z,102082.75
2018-06-23T02:58:02.461Z,102079.27
2018-06-23T03:00:30.196Z,102074.88
2018-06-23T03:02:57.974Z,102082.33
2018-06-23T03:05:25.979Z,102076.17
2018-06-23T03:07:53.707Z,102077.95
2018-06-23T03:10:21.465Z,102086.27
2018-06-23T03:12:49.264Z,102075.77
2018-06-23T03:15:17.114Z,102080.13
2018-06-23T03:17:45.837Z,102084.97
2018-06-23T03:20:13.721Z,102081.89
2018-06-23T03:22:41.412Z,102081.91
2018-06-23T03:25:09.172Z,102079.28
2018-06-23T03:27:36.960Z,102081.91
2018-06-23T03:30:04.768Z,102081.44
2018-06-23T03:32:32.662Z,102087.59
2018-06-23T03:35:00.662Z,102084.97
2018-06-23T03:37:28.510Z,102085.44
2018-06-23T03:39:56.396Z,102095.91
2018-06-23T03:42:24.112Z,102091.97
2018-06-23T03:44:51.940Z,102090.69
2018-06-23T03:47:19.701Z,102092.02
2018-06-23T03:49:47.499Z,102099.01
2018-06-23T03:52:15.380Z,102097.70
2018-06-23T03:54:43.130Z,102091.13
2018-06-23T03:57:10.906Z,102089.39
2018-06-23T03:59:38.834Z,102099.02
2018-06-23T04:02:06.553Z,102099.92
2018-06-23T04:04:34.693Z,102103.86
2018-06-23T04:07:02.896Z,102101.23
2018-06-23T04:09:30.718Z,102101.66
2018-06-23T04:11:58.511Z,102118.74
2018-06-23T04:14:26.178Z,102104.28
2018-06-23T04:16:54.163Z,102101.64
2018-06-23T04:19:21.909Z,102102.54
2018-06-23T04:21:50.109Z,102097.28
2018-06-23T04:24:17.829Z,102090.25
2018-06-23T04:26:45.600Z,102099.02
2018-06-23T04:29:13.371Z,102095.55
2018-06-23T04:31:41.229Z,102101.66
2018-06-23T04:34:08.982Z,102106.49
2018-06-23T04:36:36.964Z,102110.86
2018-06-23T04:39:06.592Z,102108.23
2018-06-23T04:41:34.305Z,102105.17
2018-06-23T04:44:02.234Z,102107.38
2018-06-23T04:46:29.996Z,102107.80
2018-06-23T04:48:57.953Z,102107.79
2018-06-23T04:51:25.660Z,102110.83
2018-06-23T04:53:53.488Z,102106.41
2018-06-23T04:56:21.746Z,102114.72
2018-06-23T04:58:49.498Z,102111.69
2018-06-23T05:01:17.266Z,102109.48
2018-06-23T05:03:45.216Z,102114.32
2018-06-23T05:06:12.912Z,102112.55
2018-06-23T05:08:40.729Z,102113.86
2018-06-23T05:11:08.925Z,102111.67
2018-06-23T05:13:36.765Z,102119.55
2018-06-23T05:16:05.160Z,102111.69
2018-06-23T05:18:32.960Z,102116.48
2018-06-23T05:21:00.698Z,102108.14
2018-06-23T05:23:28.459Z,102101.52
2018-06-23T05:25:56.235Z,102101.08
2018-06-23T05:28:24.058Z,102102.39
2018-06-23T05:30:52.005Z,102100.69
2018-06-23T05:33:21.393Z,102104.23
2018-06-23T05:35:49.238Z,102102.91
2018-06-23T05:38:17.160Z,102110.30
2018-06-23T05:40:44.981Z,102113.74
2018-06-23T05:43:12.953Z,102102.80
2018-06-23T05:45:40.951Z,102111.53
2018-06-23T05:48:09.132Z,102112.42
2018-06-23T05:50:36.904Z,102112.02
2018-06-23T05:53:04.644Z,102116.43
2018-06-23T05:55:32.463Z,102108.97
2018-06-23T05:58:00.244Z,102123.35
2018-06-23T06:00:28.144Z,102111.91
2018-06-23T06:02:56.009Z,102114.94
2018-06-23T06:05:23.781Z,102081.79
2018-06-23T06:07:51.510Z,102124.96
2018-06-23T06:10:19.795Z,102119.72
2018-06-23T06:12:47.560Z,102114.03
2018-06-23T06:15:15.306Z,102118.87
2018-06-23T06:17:43.202Z,102115.76
2018-06-23T06:20:12.702Z,102117.50
2018-06-23T06:22:42.616Z,102118.37
2018-06-23T06:25:11.001Z,102120.55
2018-06-23T06:27:38.796Z,102118.37
2018-06-23T06:30:07.810Z,102121.84
2018-06-23T06:32:35.614Z,102112.63
2018-06-23T06:35:03.583Z,102116.06
2018-06-23T06:37:31.438Z,102113.35
2018-06-23T06:39:59.353Z,102114.27
2018-06-23T06:42:27.129Z,102126.59
2018-06-23T06:44:54.930Z,102122.20
2018-06-23T06:47:22.654Z,102116.88
2018-06-23T06:49:50.475Z,102122.55
2018-06-23T06:52:18.267Z,102127.38
2018-06-23T06:54:46.001Z,102120.38
2018-06-23T06:57:13.832Z,102126.91
2018-06-23T06:59:41.658Z,102125.15
2018-06-23T07:02:09.375Z,102127.30
2018-06-23T07:04:37.299Z,102126.38
2018-06-23T07:07:05.130Z,102121.52
2018-06-23T07:09:32.903Z,102125.94
2018-06-23T07:12:01.110Z,102128.06
2018-06-23T07:14:28.827Z,102130.67
2018-06-23T07:16:56.590Z,102138.07
2018-06-23T07:19:24.409Z,102137.20
2018-06-23T07:21:52.195Z,102139.89
2018-06-23T07:24:19.988Z,102140.70
2018-06-23T07:26:47.967Z,102151.20
2018-06-23T07:29:15.812Z,102142.88
2018-06-23T07:31:43.696Z,102140.23
2018-06-23T07:34:11.497Z,102142.94
2018-06-23T07:36:39.265Z,102141.23
2018-06-23T07:39:08.404Z,102136.92
2018-06-23T07:41:36.266Z,102143.55
2018-06-23T07:44:04.619Z,102150.12
2018-06-23T07:46:32.848Z,102140.84
2018-06-23T07:49:00.680Z,102143.91
2018-06-23T07:51:28.434Z,102149.15
2018-06-23T07:53:56.270Z,102142.95
2018-06-23T07:56:23.992Z,102158.67
2018-06-23T07:58:51.777Z,102160.95
2018-06-23T08:01:19.825Z,102157.02
2018-06-23T08:03:47.440Z,102155.72
2018-06-23T08:06:15.589Z,102154.81
2018-06-23T08:08:43.507Z,102155.59
2018-06-23T08:11:11.182Z,102152.92
2018-06-23T08:13:38.829Z,102150.73
2018-06-23T08:16:06.983Z,102144.99
2018-06-23T08:18:34.783Z,102157.33
2018-06-23T08:21:02.561Z,102152.48
2018-06-23T08:23:30.560Z,102156.05
2018-06-23T08:25:58.368Z,102160.88
2018-06-23T08:28:26.134Z,102159.14
2018-06-23T08:30:53.883Z,102169.27
2018-06-23T08:33:21.678Z,102161.78
2018-06-23T08:35:49.409Z,102167.44
2018-06-23T08:38:17.222Z,102163.91
2018-06-23T08:40:44.967Z,102168.67
2018-06-23T08:43:12.794Z,102169.08
2018-06-23T08:45:40.689Z,102171.72
2018-06-23T08:48:08.571Z,102173.45
2018-06-23T08:50:36.298Z,102180.02
2018-06-23T08:53:04.151Z,102177.38
2018-06-23T08:55:31.939Z,102179.53
2018-06-23T08:57:59.766Z,102183.45
2018-06-23T09:00:27.503Z,102179.88
2018-06-23T09:02:55.329Z,102183.76
2018-06-23T09:05:23.278Z,102186.84
2018-06-23T09:07:51.124Z,102182.50
2018-06-23T09:10:19.163Z,102187.41
2018-06-23T09:12:46.969Z,102197.10
2018-06-23T09:15:15.206Z,102186.98
2018-06-23T09:17:43.191Z,102185.64
2018-06-23T09:20:11.149Z,102183.86
2018-06-23T09:22:39.104Z,102185.19
2018-06-23T09:25:06.907Z,102180.42
2018-06-23T09:27:34.706Z,102183.98
2018-06-23T09:30:02.491Z,102186.22
2018-06-23T09:32:30.690Z,102191.06
2018-06-23T09:34:58.515Z,102191.47
2018-06-23T09:37:26.345Z,102185.25
2018-06-23T09:39:54.725Z,102186.90
2018-06-23T09:42:22.961Z,102180.70
2018-06-23T09:44:50.641Z,102186.90
2018-06-23T09:47:18.674Z,102178.20
2018-06-23T09:49:46.924Z,102185.68
2018-06-23T09:52:14.762Z,102184.69
2018-06-23T09:54:42.519Z,102185.96
2018-06-23T09:57:10.346Z,102182.95
2018-06-23T09:59:38.894Z,102182.23
2018-06-23T10:02:06.811Z,102183.14
2018-06-23T10:04:34.764Z,102192.25
2018-06-23T10:07:02.690Z,102185.56
2018-06-23T10:09:30.488Z,102193.43
2018-06-23T10:11:58.288Z,102190.81
2018-06-23T10:14:25.920Z,102187.83
2018-06-23T10:16:53.829Z,102188.41
2018-06-23T10:19:21.803Z,102198.16
2018-06-23T10:21:49.530Z,102202.17
2018-06-23T10:24:17.284Z,102216.66
2018-06-23T10:26:45.133Z,102218.86
2018-06-23T10:29:12.806Z,102218.30
2018-06-23T10:31:40.700Z,102223.14
2018-06-23T10:34:08.526Z,102219.20
2018-06-23T10:36:36.366Z,102203.42
2018-06-23T10:39:06.901Z,102208.10
2018-06-23T10:41:34.741Z,102211.08
2018-06-23T10:44:02.803Z,102211.01
2018-06-23T10:46:30.575Z,102205.32
2018-06-23T10:48:58.640Z,102200.48
2018-06-23T10:51:26.494Z,102202.27
2018-06-23T10:53:54.334Z,102210.56
2018-06-23T10:56:22.378Z,102205.61
2018-06-23T10:58:50.077Z,102210.84
2018-06-23T11:01:17.991Z,102212.59
2018-06-23T11:03:45.710Z,102213.92
2018-06-23T11:06:13.388Z,102211.34
2018-06-23T11:08:41.249Z,102213.11
2018-06-23T11:11:09.028Z,102206.59
2018-06-23T11:13:38.312Z,102219.80
2018-06-23T11:16:06.248Z,102209.77
2018-06-23T11:18:34.010Z,102213.25
2018-06-23T11:21:01.728Z,102210.70
2018-06-23T11:23:29.711Z,102219.52
2018-06-23T11:25:57.589Z,102222.16
2018-06-23T11:28:25.765Z,102220.84
2018-06-23T11:30:53.497Z,102230.99
2018-06-23T11:33:21.312Z,102241.59
2018-06-23T11:35:49.184Z,102239.80
2018-06-23T11:38:17.291Z,102233.22
2018-06-23T11:40:45.148Z,102232.70
2018-06-23T11:43:12.830Z,102234.38
2018-06-23T11:45:40.606Z,102229.45
2018-06-23T11:48:08.491Z,102227.29
2018-06-23T11:50:36.329Z,102230.46
2018-06-23T11:53:04.107Z,102232.30
2018-06-23T11:55:32.133Z,102231.95
2018-06-23T11:57:59.884Z,102235.97
2018-06-23T12:00:27.738Z,102240.83
2018-06-23T12:02:55.691Z,102241.27
2018-06-23T12:05:23.484Z,102242.16
2018-06-23T12:07:51.292Z,102244.33
2018-06-23T12:10:19.103Z,102241.69
2018-06-23T12:12:47.161Z,102234.71
2018-06-23T12:15:15.084Z,102240.03
2018-06-23T12:17:42.810Z,102237.84
2018-06-23T12:20:10.523Z,102233.94
2018-06-23T12:22:38.404Z,102240.02
2018-06-23T12:25:06.198Z,102236.83
2018-06-23T12:27:33.948Z,102239.83
2018-06-23T12:30:01.741Z,102235.07
2018-06-23T12:32:29.541Z,102237.74
2018-06-23T12:34:57.470Z,102239.15
2018-06-23T12:37:25.262Z,102247.95
2018-06-23T12:39:53.007Z,102241.83
2018-06-23T12:42:21.272Z,102232.57
2018-06-23T12:44:49.094Z,102232.08
2018-06-23T12:47:16.913Z,102229.83
2018-06-23T12:49:44.723Z,102222.77
2018-06-23T12:52:12.456Z,102217.05
2018-06-23T12:54:40.280Z,102218.30
2018-06-23T12:57:08.415Z,102216.58
2018-06-23T12:59:36.217Z,102225.27
2018-06-23T13:02:04.051Z,102214.34
2018-06-23T13:04:31.779Z,102210.96
2018-06-23T13:06:59.757Z,102214.55
2018-06-23T13:09:27.770Z,102213.30
2018-06-23T13:11:55.498Z,102216.83
2018-06-23T13:14:23.245Z,102220.80
2018-06-23T13:16:51.056Z,102220.30
2018-06-23T13:19:19.206Z,102220.69
2018-06-23T13:21:46.944Z,102217.58
2018-06-23T13:24:14.850Z,102206.66
2018-06-23T13:26:42.711Z,102208.05
2018-06-23T13:29:10.541Z,102219.92
2018-06-23T13:31:38.355Z,102217.33
2018-06-23T13:34:06.074Z,102219.46
2018-06-23T13:36:33.922Z,102222.85
2018-06-23T13:39:01.685Z,102211.40
2018-06-23T13:41:29.565Z,102212.28
2018-06-23T13:43:57.836Z,102210.58
2018-06-23T13:46:25.561Z,102208.05
2018-06-23T13:48:53.326Z,102211.59
2018-06-23T13:51:21.219Z,102213.34
2018-06-23T13:53:48.964Z,102223.43
2018-06-23T13:56:16.842Z,102217.69
2018-06-23T13:58:44.696Z,102215.03
2018-06-23T14:01:12.404Z,102211.97
2018-06-23T14:03:40.300Z,102211.52
2018-06-23T14:06:08.120Z,102208.08
2018-06-23T14:08:35.938Z,102214.72
2018-06-23T14:11:03.945Z,102222.20
2018-06-23T14:13:31.774Z,102217.77
2018-06-23T14:15:59.513Z,102223.92
2018-06-23T14:18:27.383Z,102219.15
2018-06-23T14:20:55.094Z,102217.42
2018-06-23T14:23:22.909Z,102219.60
2018-06-23T14:25:50.611Z,102219.18
2018-06-23T14:28:18.443Z,102196.06
2018-06-23T14:30:46.232Z,102226.66
2018-06-23T14:33:13.964Z,102220.55
2018-06-23T14:35:41.901Z,102221.88
2018-06-23T14:38:09.671Z,102225.41
2018-06-23T14:40:37.462Z,102221.00
2018-06-23T14:43:05.184Z,102216.16
2018-06-23T14:45:32.959Z,102213.09
2018-06-23T14:48:00.689Z,102213.09
2018-06-23T14:50:28.459Z,102215.30
2018-06-23T14:52:56.233Z,102212.67
2018-06-23T14:55:24.147Z,102210.47
2018-06-23T14:57:51.980Z,102213.57
2018-06-23T15:00:19.953Z,102211.84
2018-06-23T15:02:48.705Z,102210.53
2018-06-23T15:05:16.530Z,102213.16
2018-06-23T15:07:44.631Z,102215.80
2018-06-23T15:10:23.576Z,102220.64
2018-06-23T15:13:02.535Z,102212.75
2018-06-23T15:15:30.284Z,102218.02
2018-06-23T15:17:58.057Z,102219.33
2018-06-23T15:20:25.913Z,102214.08
2018-06-23T15:22:53.805Z,102213.23
2018-06-23T15:25:21.587Z,102217.61
2018-06-23T15:27:49.596Z,102212.34
2018-06-23T15:30:17.359Z,102214.55
2018-06-23T15:32:45.133Z,102219.81
2018-06-23T15:35:12.874Z,102211.02
2018-06-23T15:37:40.647Z,102211.44
2018-06-23T15:40:08.641Z,102208.81
2018-06-23T15:42:36.384Z,102207.50
2018-06-23T15:45:04.122Z,102196.55
2018-06-23T15:47:32.279Z,102205.77
2018-06-23T15:49:59.986Z,102205.79
2018-06-23T15:52:28.657Z,102201.00
2018-06-23T15:54:56.418Z,102197.96
2018-06-23T15:57:24.220Z,102198.39
2018-06-23T15:59:52.017Z,102194.87
2018-06-23T16:02:19.837Z,102190.92
2018-06-23T16:04:47.764Z,102191.38
2018-06-23T16:07:15.546Z,102190.07
2018-06-23T16:09:43.442Z,102185.25
2018-06-23T16:12:11.189Z,102187.02
2018-06-23T16:14:39.007Z,102186.13
2018-06-23T16:17:06.981Z,102183.97
2018-06-23T16:19:34.806Z,102181.35
2018-06-23T16:22:02.539Z,102185.30
2018-06-23T16:24:30.297Z,102180.47
2018-06-23T16:26:58.418Z,102180.47
2018-06-23T16:29:26.161Z,102176.99
2018-06-23T16:31:53.825Z,102176.11
2018-06-23T16:34:21.686Z,102175.19
2018-06-23T16:36:49.379Z,102177.84
2018-06-23T16:39:17.142Z,102180.47
2018-06-23T16:41:44.943Z,102175.22
2018-06-23T16:44:12.729Z,102177.84
2018-06-23T16:46:40.520Z,102179.16
2018-06-23T16:49:08.215Z,102176.09
2018-06-23T16:51:36.182Z,102172.57
2018-06-23T16:54:03.943Z,102177.83
2018-06-23T16:56:31.946Z,102183.52
2018-06-23T16:58:59.775Z,102178.30
2018-06-23T17:01:27.516Z,102183.98
2018-06-23T17:03:55.495Z,102191.41
2018-06-23T17:06:23.235Z,102181.36
2018-06-23T17:08:51.060Z,102176.95
2018-06-23T17:11:19.101Z,102176.10
2018-06-23T17:13:46.917Z,102175.68
2018-06-23T17:16:14.584Z,102173.88
2018-06-23T17:18:42.305Z,102174.34
2018-06-23T17:21:10.026Z,102172.13
2018-06-23T17:23:37.822Z,102166.45
2018-06-23T17:26:05.601Z,102169.98
2018-06-23T17:28:33.447Z,102163.83
2018-06-23T17:31:01.304Z,102163.83
2018-06-23T17:33:29.236Z,102161.20
2018-06-23T17:35:57.358Z,102162.52
2018-06-23T17:38:25.298Z,102162.10
2018-06-23T17:40:53.060Z,102163.84
2018-06-23T17:43:20.814Z,102163.42
2018-06-23T17:45:48.469Z,102162.98
2018-06-23T17:48:16.300Z,102160.80
2018-06-23T17:50:43.969Z,102164.75
2018-06-23T17:53:12.091Z,102164.75
2018-06-23T17:55:39.832Z,102164.32
2018-06-23T17:58:07.698Z,102167.42
2018-06-23T18:00:35.434Z,102163.91
2018-06-23T18:03:03.259Z,102165.65
2018-06-23T18:05:31.136Z,102162.59
2018-06-23T18:07:58.945Z,102158.25
2018-06-23T18:10:26.905Z,102168.76
2018-06-23T18:12:54.684Z,102160.44
2018-06-23T18:15:22.399Z,102171.38
2018-06-23T18:17:50.219Z,102165.23
2018-06-23T18:20:17.956Z,102162.19
2018-06-23T18:22:45.829Z,102163.50
2018-06-23T18:25:13.661Z,102166.59
2018-06-23T18:27:41.467Z,102164.40
2018-06-23T18:30:09.214Z,102162.19
2018-06-23T18:32:37.019Z,102163.97
2018-06-23T18:35:04.876Z,102161.34
2018-06-23T18:37:32.577Z,102162.20
2018-06-23T18:40:00.660Z,102162.66
2018-06-23T18:42:28.418Z,102167.45
2018-06-23T18:44:56.291Z,102169.66
2018-06-23T18:47:24.282Z,102166.18
2018-06-23T18:49:52.243Z,102170.55
2018-06-23T18:52:19.994Z,102165.72
2018-06-23T18:54:47.798Z,102165.30
2018-06-23T18:57:16.136Z,102171.39
2018-06-23T18:59:43.909Z,102174.02
2018-06-23T19:02:11.538Z,102171.39
2018-06-23T19:04:39.763Z,102180.17
2018-06-23T19:07:07.483Z,102177.11
2018-06-23T19:09:35.270Z,102174.91
2018-06-23T19:12:03.036Z,102174.91
2018-06-23T19:14:30.849Z,102178.86
2018-06-23T19:16:58.608Z,102172.75
2018-06-23T19:19:26.361Z,102172.29
2018-06-23T19:21:54.272Z,102171.44
2018-06-23T19:24:21.972Z,102168.81
2018-06-23T19:26:49.781Z,102174.92
2018-06-23T19:29:17.985Z,102171.86
2018-06-23T19:31:45.962Z,102176.23
2018-06-23T19:34:14.130Z,102179.33
2018-06-23T19:36:41.996Z,102178.02
2018-06-23T19:39:10.556Z,102181.53
2018-06-23T19:41:38.295Z,102180.22
2018-06-23T19:44:05.990Z,102189.84
2018-06-23T19:46:33.803Z,102180.65
2018-06-23T19:49:01.629Z,102185.06
2018-06-23T19:51:29.356Z,102192.48
2018-06-23T19:53:57.428Z,102188.58
2018-06-23T19:56:25.221Z,102187.70
2018-06-23T19:58:53.097Z,102187.70
2018-06-23T20:01:20.838Z,102189.44
2018-06-23T20:03:48.862Z,102181.14
2018-06-23T20:06:16.578Z,102178.93
2018-06-23T20:08:44.415Z,102180.70
2018-06-23T20:11:12.233Z,102185.50
2018-06-23T20:13:39.947Z,102192.53
2018-06-23T20:16:07.883Z,102190.33
2018-06-23T20:18:35.756Z,102187.70
2018-06-23T20:21:03.491Z,102188.12
2018-06-23T20:23:31.727Z,102194.27
2018-06-23T20:25:59.561Z,102197.36
2018-06-23T20:28:28.212Z,102199.95
2018-06-23T20:30:56.410Z,102195.16
2018-06-23T20:33:24.737Z,102204.36
2018-06-23T20:35:52.713Z,102205.25
2018-06-23T20:38:21.327Z,102202.16
2018-06-23T20:40:49.648Z,102200.00
2018-06-23T20:43:17.494Z,102196.05
2018-06-23T20:45:45.249Z,102193.85
2018-06-23T20:48:13.052Z,102199.11
2018-06-23T20:50:40.953Z,102199.53
2018-06-23T20:53:08.745Z,102199.09
2018-06-23T20:55:36.534Z,102204.35
2018-06-23T20:58:04.377Z,102199.09
2018-06-23T21:00:32.561Z,102198.22
2018-06-23T21:03:00.230Z,102110.51
2018-06-23T21:05:28.491Z,102204.78
2018-06-23T21:07:56.204Z,102202.16
2018-06-23T21:10:35.083Z,102196.90
2018-06-23T21:13:02.923Z,102165.06
2018-06-23T21:15:30.628Z,102205.67
2018-06-23T21:17:58.516Z,102196.91
2018-06-23T21:20:26.304Z,102196.48
2018-06-23T21:22:54.016Z,102199.11
2018-06-23T21:25:21.798Z,102200.00
2018-06-23T21:27:49.518Z,102199.53
2018-06-23T21:30:17.270Z,102198.22
2018-06-23T21:32:44.989Z,102196.47
2018-06-23T21:35:13.297Z,102202.63
2018-06-23T21:37:41.141Z,102210.05
2018-06-23T21:40:09.071Z,102204.36
2018-06-23T21:42:37.261Z,102200.42
2018-06-23T21:45:04.990Z,102205.25
2018-06-23T21:47:32.694Z,102199.53
2018-06-23T21:50:00.529Z,102208.73
2018-06-23T21:52:28.303Z,102196.95
2018-06-23T21:54:56.177Z,102196.48
2018-06-23T21:57:24.023Z,102194.75
2018-06-23T21:59:51.848Z,102196.48
2018-06-23T22:02:19.781Z,102194.75
2018-06-23T22:04:47.488Z,102194.33
2018-06-23T22:07:15.383Z,102190.38
2018-06-23T22:09:43.163Z,102188.19
2018-06-23T22:12:11.013Z,102183.39
2018-06-23T22:14:38.949Z,102177.25
2018-06-23T22:17:06.957Z,102171.56
2018-06-23T22:19:34.800Z,102174.20
2018-06-23T22:22:02.663Z,102174.20
2018-06-23T22:24:30.392Z,102173.73
2018-06-23T22:26:58.210Z,102167.63
2018-06-23T22:29:26.495Z,102168.48
2018-06-23T22:31:54.290Z,102167.17
2018-06-23T22:34:22.116Z,102162.37
2018-06-23T22:36:50.294Z,102157.12
2018-06-23T22:39:18.004Z,102152.30
2018-06-23T22:41:45.742Z,102147.93
2018-06-23T22:44:13.529Z,102147.93
2018-06-23T22:46:41.502Z,102142.67
2018-06-23T22:49:09.318Z,102137.84
2018-06-23T22:51:37.008Z,102141.35
2018-06-23T22:54:04.896Z,102138.69
2018-06-23T22:56:32.664Z,102139.57
2018-06-23T22:59:00.529Z,102134.31
2018-06-23T23:01:28.307Z,102139.14
2018-06-23T23:03:56.109Z,102147.88
2018-06-23T23:06:23.905Z,102134.78
2018-06-23T23:08:51.717Z,102138.72
2018-06-23T23:11:19.624Z,102134.78
2018-06-23T23:13:47.444Z,102138.27
2018-06-23T23:16:15.151Z,102142.21
2018-06-23T23:18:43.270Z,102136.10
2018-06-23T23:21:11.119Z,102138.31
2018-06-23T23:23:38.791Z,102130.86
2018-06-23T23:26:06.584Z,102133.91
2018-06-23T23:28:34.300Z,102127.80
2018-06-23T23:31:02.054Z,102126.48
2018-06-23T23:33:29.980Z,102126.91
2018-06-23T23:35:58.107Z,102120.78
2018-06-23T23:38:25.932Z,102116.41
2018-06-23T23:40:53.724Z,102121.23
2018-06-23T23:43:21.738Z,102112.04
2018-06-23T23:45:49.539Z,102119.47
2018-06-23T23:48:17.311Z,102121.66
2018-06-23T23:50:45.071Z,102116.84
2018-06-23T23:53:13.246Z,102114.67
2018-06-23T23:55:41.041Z,102106.37
2018-06-23T23:58:08.825Z,102113.36
